createdAt,value
2018-05-15T00:00:46.527Z,14.60
2018-05-15T00:02:49.091Z,14.70
2018-05-15T00:04:51.647Z,14.70
2018-05-15T00:06:54.205Z,14.70
2018-05-15T00:08:57.551Z,14.60
2018-05-15T00:11:00.119Z,14.60
2018-05-15T00:13:02.683Z,14.30
2018-05-15T00:15:05.223Z,14.20
2018-05-15T00:17:08.544Z,14.00
2018-05-15T00:19:11.099Z,14.00
2018-05-15T00:21:13.647Z,13.90
2018-05-15T00:23:16.989Z,13.80
2018-05-15T00:25:19.646Z,13.80
2018-05-15T00:27:22.236Z,13.80
2018-05-15T00:29:24.789Z,13.70
2018-05-15T00:31:27.340Z,13.80
2018-05-15T00:33:30.663Z,14.10
2018-05-15T00:35:33.212Z,14.10
2018-05-15T00:37:36.552Z,13.90
2018-05-15T00:39:39.109Z,13.90
2018-05-15T00:41:41.708Z,14.00
2018-05-15T00:43:44.262Z,14.10
2018-05-15T00:45:46.815Z,14.10
2018-05-15T00:47:49.441Z,14.20
2018-05-15T00:49:51.996Z,14.30
2018-05-15T00:51:54.551Z,14.40
2018-05-15T00:53:57.171Z,14.50
2018-05-15T00:55:59.788Z,14.50
2018-05-15T00:58:02.369Z,14.50
2018-05-15T01:00:04.951Z,14.40
2018-05-15T01:02:07.511Z,14.40
2018-05-15T01:04:10.075Z,14.40
2018-05-15T01:06:12.714Z,14.00
2018-05-15T01:08:15.290Z,14.00
2018-05-15T01:10:17.811Z,13.80
2018-05-15T01:12:20.362Z,13.50
2018-05-15T01:14:23.692Z,13.60
2018-05-15T01:16:26.297Z,13.50
2018-05-15T01:18:28.869Z,13.50
2018-05-15T01:20:31.420Z,13.30
2018-05-15T01:22:33.983Z,13.20
2018-05-15T01:24:36.544Z,13.20
2018-05-15T01:26:39.091Z,13.30
2018-05-15T01:28:42.423Z,13.30
2018-05-15T01:30:45.836Z,13.40
2018-05-15T01:32:48.395Z,13.40
2018-05-15T01:34:50.968Z,13.70
2018-05-15T01:36:53.553Z,13.80
2018-05-15T01:38:56.114Z,13.90
2018-05-15T01:40:58.666Z,14.10
2018-05-15T01:43:01.225Z,14.20
2018-05-15T01:45:03.793Z,14.30
2018-05-15T01:47:06.337Z,14.30
2018-05-15T01:49:08.936Z,14.30
2018-05-15T01:51:12.282Z,14.30
2018-05-15T01:53:14.824Z,14.30
2018-05-15T01:55:17.392Z,14.40
2018-05-15T01:57:19.978Z,14.40
2018-05-15T01:59:22.551Z,14.40
2018-05-15T02:01:25.104Z,14.40
2018-05-15T02:03:27.645Z,14.40
2018-05-15T02:05:30.211Z,14.40
2018-05-15T02:07:32.763Z,14.30
2018-05-15T02:09:36.131Z,14.20
2018-05-15T02:11:38.695Z,14.20
2018-05-15T02:13:41.243Z,13.80
2018-05-15T02:15:44.571Z,13.70
2018-05-15T02:17:47.123Z,13.70
2018-05-15T02:19:49.747Z,13.90
2018-05-15T02:21:52.321Z,13.90
2018-05-15T02:23:54.872Z,13.70
2018-05-15T02:25:57.420Z,13.70
2018-05-15T02:28:00.831Z,13.90
2018-05-15T02:30:03.380Z,13.90
2018-05-15T02:32:06.730Z,13.90
2018-05-15T02:34:09.301Z,13.90
2018-05-15T02:36:11.860Z,14.00
2018-05-15T02:38:14.407Z,13.90
2018-05-15T02:40:16.980Z,14.00
2018-05-15T02:42:19.525Z,14.00
2018-05-15T02:44:22.853Z,13.90
2018-05-15T02:46:25.503Z,13.90
2018-05-15T02:48:28.065Z,14.00
2018-05-15T02:50:31.395Z,14.00
2018-05-15T02:52:33.965Z,14.00
2018-05-15T02:54:37.290Z,14.10
2018-05-15T02:56:39.836Z,14.10
2018-05-15T02:58:42.414Z,14.20
2018-05-15T03:00:44.991Z,14.20
2018-05-15T03:02:47.545Z,14.20
2018-05-15T03:04:50.105Z,14.30
2018-05-15T03:06:52.810Z,14.30
2018-05-15T03:08:56.123Z,14.40
2018-05-15T03:10:59.492Z,14.30
2018-05-15T03:13:02.040Z,14.30
2018-05-15T03:15:04.611Z,14.30
2018-05-15T03:17:07.187Z,14.30
2018-05-15T03:19:09.732Z,14.30
2018-05-15T03:21:13.107Z,14.40
2018-05-15T03:23:15.702Z,14.30
2018-05-15T03:25:18.275Z,14.40
2018-05-15T03:27:20.875Z,14.40
2018-05-15T03:29:23.420Z,14.40
2018-05-15T03:31:26.821Z,14.30
2018-05-15T03:33:30.145Z,14.30
2018-05-15T03:35:32.735Z,14.30
2018-05-15T03:37:35.286Z,14.30
2018-05-15T03:39:37.848Z,14.20
2018-05-15T03:41:41.311Z,14.20
2018-05-15T03:43:43.868Z,14.20
2018-05-15T03:45:46.446Z,14.30
2018-05-15T03:47:49.040Z,14.30
2018-05-15T03:49:51.591Z,14.30
2018-05-15T03:51:54.166Z,14.20
2018-05-15T03:53:56.747Z,14.10
2018-05-15T03:55:59.332Z,14.10
2018-05-15T03:58:01.884Z,13.90
2018-05-15T04:00:04.420Z,13.90
2018-05-15T04:02:18.814Z,13.80
2018-05-15T04:04:33.031Z,13.90
2018-05-15T04:06:47.319Z,14.00
2018-05-15T04:08:51.367Z,13.90
2018-05-15T04:10:54.048Z,13.90
2018-05-15T04:12:56.663Z,13.90
2018-05-15T04:14:59.219Z,14.00
2018-05-15T04:17:01.796Z,14.10
2018-05-15T04:19:04.350Z,14.10
2018-05-15T04:21:06.915Z,14.20
2018-05-15T04:23:10.360Z,14.30
2018-05-15T04:25:13.683Z,14.40
2018-05-15T04:27:17.012Z,14.40
2018-05-15T04:29:19.577Z,14.40
2018-05-15T04:31:22.139Z,14.30
2018-05-15T04:33:24.684Z,14.20
2018-05-15T04:35:27.998Z,13.90
2018-05-15T04:37:30.589Z,13.90
2018-05-15T04:39:33.147Z,13.70
2018-05-15T04:41:35.725Z,13.60
2018-05-15T04:43:38.424Z,13.70
2018-05-15T04:45:40.919Z,13.80
2018-05-15T04:47:43.473Z,13.90
2018-05-15T04:49:46.036Z,14.00
2018-05-15T04:51:48.605Z,14.10
2018-05-15T04:53:51.165Z,14.00
2018-05-15T04:55:53.716Z,13.90
2018-05-15T04:57:57.099Z,13.90
2018-05-15T05:00:00.415Z,13.90
2018-05-15T05:02:02.999Z,13.90
2018-05-15T05:04:05.562Z,14.10
2018-05-15T05:06:08.119Z,14.20
2018-05-15T05:08:10.695Z,14.30
2018-05-15T05:10:14.028Z,14.50
2018-05-15T05:12:16.634Z,14.50
2018-05-15T05:14:19.247Z,14.60
2018-05-15T05:16:21.819Z,14.70
2018-05-15T05:18:24.369Z,14.80
2018-05-15T05:20:27.680Z,14.60
2018-05-15T05:22:30.263Z,14.60
2018-05-15T05:24:32.803Z,14.40
2018-05-15T05:26:35.384Z,14.10
2018-05-15T05:28:38.807Z,14.30
2018-05-15T05:30:41.361Z,14.30
2018-05-15T05:32:44.755Z,14.00
2018-05-15T05:34:48.065Z,14.10
2018-05-15T05:36:50.628Z,14.10
2018-05-15T05:38:53.247Z,14.30
2018-05-15T05:40:55.817Z,14.40
2018-05-15T05:42:58.389Z,14.50
2018-05-15T05:45:00.943Z,14.10
2018-05-15T05:47:03.511Z,14.10
2018-05-15T05:49:06.055Z,14.30
2018-05-15T05:51:09.371Z,14.40
2018-05-15T05:53:11.947Z,14.40
2018-05-15T05:55:14.509Z,14.40
2018-05-15T05:57:17.089Z,14.50
2018-05-15T05:59:19.635Z,14.50
2018-05-15T06:01:22.948Z,14.50
2018-05-15T06:03:25.645Z,14.50
2018-05-15T06:05:28.192Z,14.50
2018-05-15T06:07:30.748Z,14.20
2018-05-15T06:09:34.058Z,14.10
2018-05-15T06:11:36.604Z,14.00
2018-05-15T06:13:39.948Z,14.40
2018-05-15T06:15:42.498Z,14.40
2018-05-15T06:17:45.048Z,14.40
2018-05-15T06:19:48.363Z,14.50
2018-05-15T06:21:50.906Z,14.50
2018-05-15T06:23:54.250Z,14.30
2018-05-15T06:25:56.823Z,14.20
2018-05-15T06:27:59.407Z,14.10
2018-05-15T06:30:01.968Z,14.40
2018-05-15T06:32:04.532Z,14.50
2018-05-15T06:34:07.106Z,14.90
2018-05-15T06:36:09.671Z,14.70
2018-05-15T06:38:12.278Z,14.90
2018-05-15T06:40:14.840Z,14.70
2018-05-15T06:42:17.459Z,14.90
2018-05-15T06:44:20.024Z,14.90
2018-05-15T06:46:22.580Z,15.00
2018-05-15T06:48:25.176Z,15.10
2018-05-15T06:50:27.732Z,15.10
2018-05-15T06:52:30.358Z,15.20
2018-05-15T06:54:32.949Z,15.40
2018-05-15T06:56:35.483Z,15.60
2018-05-15T06:58:38.837Z,15.80
2018-05-15T07:00:41.388Z,15.80
2018-05-15T07:02:43.941Z,15.70
2018-05-15T07:04:46.554Z,15.40
2018-05-15T07:06:49.103Z,15.40
2018-05-15T07:08:51.703Z,15.30
2018-05-15T07:10:54.276Z,15.30
2018-05-15T07:12:56.864Z,15.20
2018-05-15T07:14:59.455Z,15.20
2018-05-15T07:17:02.016Z,15.00
2018-05-15T07:19:04.583Z,15.00
2018-05-15T07:21:07.191Z,15.10
2018-05-15T07:23:10.530Z,15.30
2018-05-15T07:25:13.095Z,15.30
2018-05-15T07:27:15.741Z,15.30
2018-05-15T07:29:18.228Z,15.30
2018-05-15T07:31:20.786Z,15.40
2018-05-15T07:33:24.141Z,15.70
2018-05-15T07:35:26.823Z,15.70
2018-05-15T07:37:29.391Z,15.80
2018-05-15T07:39:32.049Z,15.90
2018-05-15T07:41:35.411Z,16.20
2018-05-15T07:43:37.982Z,16.10
2018-05-15T07:45:40.597Z,16.20
2018-05-15T07:47:43.169Z,16.30
2018-05-15T07:49:45.750Z,16.30
2018-05-15T07:51:48.303Z,16.30
2018-05-15T07:53:50.876Z,16.30
2018-05-15T07:55:53.439Z,16.40
2018-05-15T07:57:56.183Z,16.50
2018-05-15T07:59:59.540Z,16.40
2018-05-15T08:02:02.157Z,16.40
2018-05-15T08:04:04.665Z,16.50
2018-05-15T08:06:07.356Z,16.50
2018-05-15T08:08:09.895Z,16.60
2018-05-15T08:10:12.473Z,16.60
2018-05-15T08:12:15.042Z,16.60
2018-05-15T08:14:17.616Z,16.50
2018-05-15T08:16:20.264Z,16.50
2018-05-15T08:18:22.743Z,16.60
2018-05-15T08:20:26.082Z,16.90
2018-05-15T08:22:28.686Z,16.90
2018-05-15T08:24:31.227Z,16.70
2018-05-15T08:26:33.798Z,16.70
2018-05-15T08:28:36.374Z,16.50
2018-05-15T08:30:38.949Z,16.50
2018-05-15T08:32:41.517Z,16.60
2018-05-15T08:34:44.097Z,16.70
2018-05-15T08:36:46.654Z,16.70
2018-05-15T08:38:49.215Z,16.70
2018-05-15T08:40:51.893Z,16.70
2018-05-15T08:42:54.536Z,16.80
2018-05-15T08:44:57.886Z,16.90
2018-05-15T08:47:00.444Z,16.90
2018-05-15T08:49:03.094Z,16.80
2018-05-15T08:51:05.701Z,16.60
2018-05-15T08:53:09.052Z,16.60
2018-05-15T08:55:12.416Z,16.60
2018-05-15T08:57:14.961Z,16.60
2018-05-15T08:59:17.524Z,16.60
2018-05-15T09:01:20.107Z,16.80
2018-05-15T09:03:22.670Z,16.90
2018-05-15T09:05:25.356Z,17.10
2018-05-15T09:07:27.913Z,17.20
2018-05-15T09:09:30.464Z,17.40
2018-05-15T09:11:33.139Z,17.30
2018-05-15T09:13:36.461Z,17.30
2018-05-15T09:15:39.074Z,17.30
2018-05-15T09:17:41.639Z,17.20
2018-05-15T09:19:44.199Z,17.00
2018-05-15T09:21:46.781Z,17.30
2018-05-15T09:23:49.383Z,17.20
2018-05-15T09:25:52.724Z,17.50
2018-05-15T09:27:55.284Z,17.50
2018-05-15T09:29:58.605Z,17.50
2018-05-15T09:32:01.177Z,17.50
2018-05-15T09:34:03.723Z,17.50
2018-05-15T09:36:07.083Z,17.40
2018-05-15T09:38:10.407Z,17.40
2018-05-15T09:40:12.968Z,17.40
2018-05-15T09:42:15.596Z,17.30
2018-05-15T09:44:18.150Z,17.30
2018-05-15T09:46:20.754Z,17.50
2018-05-15T09:48:23.477Z,17.60
2018-05-15T09:50:26.050Z,17.80
2018-05-15T09:52:28.621Z,18.10
2018-05-15T09:54:31.171Z,17.90
2018-05-15T09:56:34.529Z,17.70
2018-05-15T09:58:37.110Z,17.70
2018-05-15T10:00:39.673Z,17.40
2018-05-15T10:02:43.038Z,17.40
2018-05-15T10:04:45.578Z,17.40
2018-05-15T10:06:48.231Z,17.50
2018-05-15T10:08:50.784Z,17.70
2018-05-15T10:10:53.356Z,17.30
2018-05-15T10:12:56.713Z,17.70
2018-05-15T10:14:59.269Z,17.70
2018-05-15T10:17:01.859Z,17.80
2018-05-15T10:19:04.423Z,17.80
2018-05-15T10:21:06.982Z,17.90
2018-05-15T10:23:10.322Z,17.80
2018-05-15T10:25:12.879Z,17.80
2018-05-15T10:27:15.475Z,17.90
2018-05-15T10:29:18.067Z,17.90
2018-05-15T10:31:20.621Z,17.90
2018-05-15T10:33:23.214Z,17.70
2018-05-15T10:35:25.768Z,17.80
2018-05-15T10:37:28.343Z,18.10
2018-05-15T10:39:30.910Z,18.10
2018-05-15T10:41:33.463Z,17.80
2018-05-15T10:43:36.050Z,17.40
2018-05-15T10:45:38.596Z,17.30
2018-05-15T10:47:41.184Z,17.40
2018-05-15T10:49:43.762Z,17.50
2018-05-15T10:51:46.323Z,17.60
2018-05-15T10:53:48.892Z,17.40
2018-05-15T10:55:51.455Z,17.20
2018-05-15T10:57:54.021Z,17.40
2018-05-15T10:59:57.357Z,17.70
2018-05-15T11:02:00.034Z,17.70
2018-05-15T11:04:02.584Z,17.80
2018-05-15T11:06:05.229Z,17.90
2018-05-15T11:08:07.723Z,17.60
2018-05-15T11:10:10.279Z,17.40
2018-05-15T11:12:13.622Z,17.60
2018-05-15T11:14:16.174Z,17.60
2018-05-15T11:16:18.740Z,17.60
2018-05-15T11:18:45.147Z,17.60
2018-05-15T11:21:00.164Z,18.00
2018-05-15T11:23:24.073Z,17.90
2018-05-15T11:25:26.676Z,18.20
2018-05-15T11:27:30.021Z,18.10
2018-05-15T11:29:33.356Z,18.00
2018-05-15T11:31:36.682Z,18.20
2018-05-15T11:33:39.309Z,18.10
2018-05-15T11:35:42.672Z,18.20
2018-05-15T11:37:45.192Z,18.20
2018-05-15T11:39:47.757Z,18.20
2018-05-15T11:41:51.085Z,18.60
2018-05-15T11:43:53.670Z,18.60
2018-05-15T11:45:56.228Z,18.70
2018-05-15T11:47:59.152Z,18.70
2018-05-15T11:50:02.359Z,18.70
2018-05-15T11:52:05.082Z,18.70
2018-05-15T11:54:06.566Z,18.70
2018-05-15T11:56:09.112Z,18.50
2018-05-15T11:58:11.705Z,18.20
2018-05-15T12:00:14.312Z,18.00
2018-05-15T12:02:16.850Z,18.10
2018-05-15T12:04:19.409Z,18.20
2018-05-15T12:06:21.960Z,18.10
2018-05-15T12:08:24.560Z,18.20
2018-05-15T12:10:27.100Z,18.20
2018-05-15T12:12:29.637Z,18.40
2018-05-15T12:14:32.264Z,18.40
2018-05-15T12:16:35.011Z,18.40
2018-05-15T12:18:37.706Z,18.30
2018-05-15T12:20:40.163Z,18.40
2018-05-15T12:22:42.732Z,18.50
2018-05-15T12:24:45.296Z,18.40
2018-05-15T12:26:48.601Z,18.30
2018-05-15T12:28:51.155Z,18.20
2018-05-15T12:30:54.468Z,18.30
2018-05-15T12:32:57.081Z,18.30
2018-05-15T12:34:59.666Z,18.40
2018-05-15T12:37:02.241Z,18.40
2018-05-15T12:39:04.853Z,18.60
2018-05-15T12:41:07.388Z,18.70
2018-05-15T12:43:09.957Z,18.70
2018-05-15T12:45:12.617Z,18.60
2018-05-15T12:47:15.167Z,18.60
2018-05-15T12:49:17.729Z,18.70
2018-05-15T12:51:20.288Z,18.80
2018-05-15T12:53:22.867Z,18.80
2018-05-15T12:55:25.428Z,18.80
2018-05-15T12:57:28.732Z,18.50
2018-05-15T12:59:31.309Z,18.60
2018-05-15T13:01:33.840Z,18.50
2018-05-15T13:03:36.399Z,18.40
2018-05-15T13:05:38.940Z,18.50
2018-05-15T13:07:41.492Z,18.60
2018-05-15T13:09:44.830Z,19.00
2018-05-15T13:11:47.374Z,19.00
2018-05-15T13:13:49.940Z,19.20
2018-05-15T13:15:52.484Z,19.40
2018-05-15T13:17:55.810Z,19.30
2018-05-15T13:19:58.385Z,19.30
2018-05-15T13:22:00.959Z,19.30
2018-05-15T13:24:03.540Z,19.10
2018-05-15T13:26:06.092Z,19.10
2018-05-15T13:28:08.639Z,19.20
2018-05-15T13:30:11.302Z,19.30
2018-05-15T13:32:13.854Z,19.30
2018-05-15T13:34:16.428Z,19.60
2018-05-15T13:36:18.967Z,19.70
2018-05-15T13:38:21.511Z,19.50
2018-05-15T13:40:24.864Z,19.70
2018-05-15T13:42:27.448Z,19.70
2018-05-15T13:44:30.029Z,19.40
2018-05-15T13:46:32.570Z,19.00
2018-05-15T13:48:35.154Z,19.00
2018-05-15T13:50:37.774Z,19.10
2018-05-15T13:52:40.289Z,19.30
2018-05-15T13:54:42.871Z,19.40
2018-05-15T13:56:45.455Z,19.20
2018-05-15T13:58:48.008Z,19.00
2018-05-15T14:00:50.577Z,19.10
2018-05-15T14:02:53.140Z,19.30
2018-05-15T14:04:55.706Z,19.10
2018-05-15T14:06:59.022Z,19.00
2018-05-15T14:09:01.575Z,19.00
2018-05-15T14:11:04.131Z,18.90
2018-05-15T14:13:07.444Z,19.10
2018-05-15T14:15:10.283Z,19.10
2018-05-15T14:17:12.833Z,19.20
2018-05-15T14:19:15.654Z,19.40
2018-05-15T14:21:18.991Z,19.50
2018-05-15T14:23:21.541Z,19.50
2018-05-15T14:25:24.117Z,19.40
2018-05-15T14:27:26.664Z,19.20
2018-05-15T14:29:30.015Z,19.00
2018-05-15T14:31:32.572Z,19.00
2018-05-15T14:33:35.135Z,18.70
2018-05-15T14:35:37.754Z,18.40
2018-05-15T14:37:40.312Z,18.10
2018-05-15T14:39:42.867Z,18.00
2018-05-15T14:41:57.211Z,17.90
2018-05-15T14:43:59.773Z,17.90
2018-05-15T14:46:02.337Z,18.00
2018-05-15T14:48:04.887Z,18.10
2018-05-15T14:50:08.250Z,17.90
2018-05-15T14:52:10.813Z,17.90
2018-05-15T14:54:13.364Z,18.00
2018-05-15T14:56:15.923Z,18.00
2018-05-15T14:58:18.487Z,17.90
2018-05-15T15:00:21.060Z,18.00
2018-05-15T15:02:24.359Z,18.10
2018-05-15T15:04:26.923Z,18.10
2018-05-15T15:06:30.264Z,18.10
2018-05-15T15:08:32.886Z,18.10
2018-05-15T15:10:35.403Z,18.00
2018-05-15T15:12:38.716Z,17.80
2018-05-15T15:14:41.299Z,17.80
2018-05-15T15:16:43.864Z,17.70
2018-05-15T15:18:46.523Z,17.90
2018-05-15T15:20:49.097Z,18.00
2018-05-15T15:22:51.631Z,17.70
2018-05-15T15:24:54.170Z,17.40
2018-05-15T15:26:56.790Z,17.30
2018-05-15T15:28:59.327Z,17.10
2018-05-15T15:31:02.677Z,17.40
2018-05-15T15:33:05.208Z,17.40
2018-05-15T15:35:07.855Z,17.50
2018-05-15T15:37:10.359Z,17.40
2018-05-15T15:39:13.664Z,17.20
2018-05-15T15:41:16.263Z,17.20
2018-05-15T15:43:18.825Z,17.20
2018-05-15T15:45:21.360Z,17.20
2018-05-15T15:47:24.704Z,17.00
2018-05-15T15:49:27.245Z,17.00
2018-05-15T15:51:29.831Z,17.10
2018-05-15T15:53:32.382Z,17.20
2018-05-15T15:55:34.960Z,17.20
2018-05-15T15:57:37.512Z,17.10
2018-05-15T15:59:40.852Z,17.40
2018-05-15T16:01:43.404Z,17.40
2018-05-15T16:03:45.967Z,17.50
2018-05-15T16:05:48.532Z,17.60
2018-05-15T16:07:51.867Z,18.00
2018-05-15T16:09:54.559Z,18.00
2018-05-15T16:11:56.977Z,18.20
2018-05-15T16:13:59.555Z,18.30
2018-05-15T16:16:02.130Z,18.70
2018-05-15T16:18:04.679Z,18.80
2018-05-15T16:20:08.126Z,19.10
2018-05-15T16:22:10.735Z,19.10
2018-05-15T16:24:13.963Z,19.10
2018-05-15T16:26:16.525Z,19.10
2018-05-15T16:28:19.095Z,19.00
2018-05-15T16:30:22.399Z,18.70
2018-05-15T16:32:24.988Z,18.70
2018-05-15T16:34:27.522Z,18.70
2018-05-15T16:36:30.858Z,18.20
2018-05-15T16:38:33.410Z,18.20
2018-05-15T16:40:37.415Z,18.30
2018-05-15T16:42:39.993Z,18.40
2018-05-15T16:44:42.572Z,18.30
2018-05-15T16:46:45.139Z,18.00
2018-05-15T16:48:47.684Z,17.90
2018-05-15T16:50:51.018Z,18.00
2018-05-15T16:52:53.585Z,18.10
2018-05-15T16:54:56.135Z,18.10
2018-05-15T16:56:58.720Z,18.00
2018-05-15T16:59:01.279Z,18.00
2018-05-15T17:01:04.603Z,18.00
2018-05-15T17:03:07.174Z,18.00
2018-05-15T17:05:09.738Z,18.20
2018-05-15T17:07:12.302Z,18.30
2018-05-15T17:09:14.894Z,18.00
2018-05-15T17:11:17.459Z,18.10
2018-05-15T17:13:20.097Z,18.20
2018-05-15T17:15:22.715Z,18.30
2018-05-15T17:17:25.302Z,18.30
2018-05-15T17:19:27.846Z,18.40
2018-05-15T17:21:30.415Z,18.30
2018-05-15T17:23:33.765Z,18.20
2018-05-15T17:25:36.328Z,18.20
2018-05-15T17:27:38.889Z,18.30
2018-05-15T17:29:41.447Z,18.30
2018-05-15T17:31:44.032Z,18.30
2018-05-15T17:33:46.671Z,18.30
2018-05-15T17:35:49.240Z,18.30
2018-05-15T17:37:52.573Z,18.20
2018-05-15T17:39:55.107Z,18.20
2018-05-15T17:41:58.528Z,18.20
2018-05-15T17:44:01.079Z,18.10
2018-05-15T17:46:03.900Z,18.10
2018-05-15T17:48:06.485Z,18.10
2018-05-15T17:50:09.084Z,18.10
2018-05-15T17:52:12.423Z,17.80
2018-05-15T17:54:14.993Z,17.80
2018-05-15T17:56:17.560Z,17.80
2018-05-15T17:58:20.129Z,17.70
2018-05-15T18:00:22.677Z,17.50
2018-05-15T18:02:26.037Z,17.20
2018-05-15T18:04:28.575Z,17.20
2018-05-15T18:06:31.207Z,17.30
2018-05-15T18:08:33.859Z,17.40
2018-05-15T18:10:37.132Z,17.20
2018-05-15T18:12:39.752Z,17.10
2018-05-15T18:14:42.364Z,17.10
2018-05-15T18:16:44.905Z,16.90
2018-05-15T18:18:48.231Z,16.70
2018-05-15T18:20:50.791Z,16.70
2018-05-15T18:22:53.360Z,16.70
2018-05-15T18:24:56.660Z,16.70
2018-05-15T18:26:59.223Z,16.70
2018-05-15T18:29:01.817Z,16.60
2018-05-15T18:31:04.352Z,16.50
2018-05-15T18:33:07.834Z,16.10
2018-05-15T18:35:10.339Z,16.10
2018-05-15T18:37:13.655Z,16.20
2018-05-15T18:39:16.240Z,16.20
2018-05-15T18:41:18.804Z,16.10
2018-05-15T18:43:21.390Z,16.10
2018-05-15T18:45:23.994Z,15.80
2018-05-15T18:47:27.292Z,15.70
2018-05-15T18:49:30.629Z,15.70
2018-05-15T18:51:33.195Z,15.70
2018-05-15T18:53:35.765Z,15.50
2018-05-15T18:55:38.336Z,15.50
2018-05-15T18:57:40.900Z,15.20
2018-05-15T18:59:44.268Z,14.90
2018-05-15T19:01:47.585Z,14.80
2018-05-15T19:03:50.167Z,14.80
2018-05-15T19:05:52.792Z,14.80
2018-05-15T19:07:55.407Z,14.70
2018-05-15T19:09:57.999Z,14.70
2018-05-15T19:12:00.570Z,14.80
2018-05-15T19:14:03.243Z,15.00
2018-05-15T19:16:05.820Z,15.30
2018-05-15T19:18:08.292Z,15.40
2018-05-15T19:20:10.842Z,15.30
2018-05-15T19:22:14.234Z,15.30
2018-05-15T19:24:17.584Z,15.20
2018-05-15T19:26:20.125Z,15.20
2018-05-15T19:28:24.374Z,14.90
2018-05-15T19:30:26.911Z,14.80
2018-05-15T19:32:35.112Z,15.00
2018-05-15T19:34:37.692Z,15.10
2018-05-15T19:36:45.952Z,15.20
2018-05-15T19:38:48.557Z,15.40
2018-05-15T19:40:51.843Z,15.50
2018-05-15T19:42:55.179Z,15.50
2018-05-15T19:44:57.858Z,15.50
2018-05-15T19:47:01.108Z,15.60
2018-05-15T19:49:03.687Z,15.60
2018-05-15T19:51:06.676Z,15.70
2018-05-15T19:53:09.212Z,15.70
2018-05-15T19:55:12.557Z,15.80
2018-05-15T19:57:15.104Z,15.80
2018-05-15T19:59:17.673Z,15.80
2018-05-15T20:01:20.253Z,15.70
2018-05-15T20:03:22.896Z,15.30
2018-05-15T20:05:26.199Z,14.80
2018-05-15T20:07:29.516Z,14.70
2018-05-15T20:09:32.146Z,14.70
2018-05-15T20:11:35.406Z,14.80
2018-05-15T20:13:37.986Z,14.70
2018-05-15T20:15:40.552Z,14.90
2018-05-15T20:17:43.112Z,15.00
2018-05-15T20:19:45.745Z,15.20
2018-05-15T20:21:49.070Z,15.30
2018-05-15T20:23:51.705Z,15.30
2018-05-15T20:25:55.201Z,15.40
2018-05-15T20:27:58.541Z,15.40
2018-05-15T20:30:01.137Z,15.40
2018-05-15T20:32:03.700Z,15.40
2018-05-15T20:34:06.281Z,15.40
2018-05-15T20:36:08.839Z,15.30
2018-05-15T20:38:11.408Z,15.10
2018-05-15T20:40:14.059Z,15.00
2018-05-15T20:42:16.745Z,14.60
2018-05-15T20:44:20.058Z,14.50
2018-05-15T20:46:22.623Z,14.50
2018-05-15T20:48:25.252Z,14.40
2018-05-15T20:50:28.617Z,14.10
2018-05-15T20:52:31.166Z,14.10
2018-05-15T20:54:33.761Z,14.10
2018-05-15T20:56:36.319Z,14.10
2018-05-15T20:58:39.705Z,14.30
2018-05-15T21:00:42.374Z,14.30
2018-05-15T21:02:44.856Z,14.40
2018-05-15T21:04:47.454Z,14.40
2018-05-15T21:06:50.758Z,14.50
2018-05-15T21:08:53.298Z,14.50
2018-05-15T21:10:55.848Z,14.30
2018-05-15T21:12:58.449Z,14.30
2018-05-15T21:15:01.051Z,14.30
2018-05-15T21:17:03.564Z,14.30
2018-05-15T21:19:06.110Z,14.20
2018-05-15T21:23:06.496Z,14.20
2018-05-15T21:25:09.833Z,14.20
2018-05-15T21:27:13.222Z,14.20
2018-05-15T21:29:16.529Z,14.30
2018-05-15T21:31:20.656Z,14.20
2018-05-15T21:33:23.215Z,14.20
2018-05-15T21:35:26.543Z,14.20
2018-05-15T21:37:29.098Z,14.20
2018-05-15T21:39:31.637Z,14.30
2018-05-15T21:41:34.204Z,14.40
2018-05-15T21:43:36.768Z,14.50
2018-05-15T21:45:39.371Z,14.60
2018-05-15T21:47:42.676Z,14.90
2018-05-15T21:49:45.231Z,14.90
2018-05-15T21:51:48.569Z,15.10
2018-05-15T21:53:51.112Z,15.00
2018-05-15T21:55:53.731Z,14.90
2018-05-15T21:57:56.308Z,14.90
2018-05-15T21:59:58.871Z,15.00
2018-05-15T22:02:01.489Z,15.00
2018-05-15T22:04:04.813Z,15.20
2018-05-15T22:06:07.378Z,15.20
2018-05-15T22:08:09.950Z,15.20
2018-05-15T22:10:12.498Z,15.20
2018-05-15T22:12:27.751Z,15.20
2018-05-15T22:14:41.968Z,15.20
2018-05-15T22:16:57.018Z,15.10
2018-05-15T22:19:11.465Z,15.10
2018-05-15T22:21:25.743Z,15.00
2018-05-15T22:23:27.793Z,14.80
2018-05-15T22:25:30.327Z,14.80
2018-05-15T22:27:32.915Z,14.80
2018-05-15T22:29:36.235Z,14.90
2018-05-15T22:31:40.200Z,15.00
2018-05-15T22:33:42.748Z,14.90
2018-05-15T22:35:45.319Z,14.80
2018-05-15T22:37:47.864Z,14.70
2018-05-15T22:39:50.404Z,14.80
2018-05-15T22:41:52.973Z,14.70
2018-05-15T22:43:55.539Z,14.60
2018-05-15T22:45:58.856Z,14.80
2018-05-15T22:48:01.414Z,14.80
2018-05-15T22:50:03.995Z,14.90
2018-05-15T22:52:06.563Z,15.10
2018-05-15T22:54:09.127Z,15.10
2018-05-15T22:56:12.460Z,15.20
2018-05-15T22:58:14.995Z,15.20
2018-05-15T23:00:18.388Z,14.90
2018-05-15T23:02:20.943Z,14.90
2018-05-15T23:04:24.317Z,14.70
2018-05-15T23:06:26.938Z,14.70
2018-05-15T23:08:30.330Z,14.40
2018-05-15T23:10:32.891Z,14.40
2018-05-15T23:12:36.273Z,14.60
2018-05-15T23:14:39.580Z,14.60
2018-05-15T23:16:42.941Z,14.40
2018-05-15T23:18:46.244Z,14.20
2018-05-15T23:20:49.625Z,14.20
2018-05-15T23:25:01.855Z,14.30
2018-05-15T23:27:04.440Z,14.10
2018-05-15T23:29:07.074Z,14.20
2018-05-15T23:31:09.807Z,14.30
2018-05-15T23:33:12.369Z,14.20
2018-05-15T23:35:15.479Z,14.10
2018-05-15T23:37:18.060Z,14.10
2018-05-15T23:39:20.612Z,14.00
2018-05-15T23:41:23.168Z,13.90
2018-05-15T23:43:25.785Z,13.90
2018-05-15T23:47:38.017Z,13.90
2018-05-15T23:49:40.568Z,13.90
2018-05-15T23:51:43.883Z,13.70
2018-05-15T23:53:46.441Z,13.60
2018-05-15T23:55:48.976Z,13.60
2018-05-15T23:57:51.538Z,13.80
2018-05-15T23:59:54.091Z,13.90
